Terminal Aerodrome Forecast
Issued by NWS Glasgow, MT

Home | Current Version | Previous Version | Text Only | Print | Product List | Glossary On
Versions: 1 2 3 4 5 6 7 8 9 10 11 12 13 14 15
368
FTUS45 KGGW 151720
TAFGGW
TAF
KGGW 151720Z 1518/1618 27006KT P6SM BKN120
     FM160200 30009KT P6SM VCSH OVC070
     FM160400 31009KT P6SM VCSH OVC030
     FM160600 31010KT P6SM OVC015
     FM160800 31009KT P6SM OVC035
     FM161200 31008KT P6SM SCT130=

USA.gov is the U.S. government's official web portal to all federal, state and local government web resources and services.